Time;durP1;ratioP1;P1;durP2;ratioP2;P2;SDS_P1;SDS_P2;PMS_P1;PMS_P2;Temp;Humidity;BMP_temperature;BMP_pressure;BME280_temperature;BME280_humidity;BME280_pressure;Samples;Min_cycle;Max_cycle;Signal;HPM_P1;HPM_P2
2022/12/20 00:00:18;;;;;;;9.25;5.13;;;;;;;;;;5051352;28;20526;-73
2022/12/20 00:02:44;;;;;;;7.60;4.70;;;;;;;;;;5052232;28;20057;-74
2022/12/20 00:05:10;;;;;;;9.55;5.35;;;;;;;;;;5052826;28;20109;-73
2022/12/20 00:07:36;;;;;;;10.00;5.43;;;;;;;;;;5053309;28;20044;-74
2022/12/20 00:10:02;;;;;;;9.32;5.13;;;;;;;;;;5052404;28;20471;-74
2022/12/20 00:12:28;;;;;;;10.15;5.25;;;;;;;;;;5027787;28;20076;-73
2022/12/20 00:14:54;;;;;;;11.63;4.93;;;;;;;;;;5043822;28;20049;-73
2022/12/20 00:17:21;;;;;;;9.93;5.25;;;;;;;;;;5042446;28;20045;-73
2022/12/20 00:19:47;;;;;;;11.27;5.30;;;;;;;;;;5042620;28;20044;-73
2022/12/20 00:22:13;;;;;;;8.88;5.15;;;;;;;;;;5044665;28;20087;-73
2022/12/20 00:24:39;;;;;;;8.68;5.13;;;;;;;;;;5042822;28;20045;-73
2022/12/20 00:27:05;;;;;;;10.60;5.13;;;;;;;;;;5043228;28;20045;-74
2022/12/20 00:29:31;;;;;;;7.65;5.07;;;;;;;;;;5041766;28;20045;-73
2022/12/20 00:31:57;;;;;;;10.05;5.43;;;;;;;;;;5052084;28;20553;-74
2022/12/20 00:34:24;;;;;;;10.40;4.70;;;;;;;;;;5052628;28;20049;-74
2022/12/20 00:36:50;;;;;;;10.98;5.47;;;;;;;;;;5051121;28;20482;-73
2022/12/20 00:39:16;;;;;;;8.07;5.13;;;;;;;;;;5052206;28;20114;-73
2022/12/20 00:41:42;;;;;;;7.72;5.00;;;;;;;;;;5052716;28;20056;-73
2022/12/20 00:44:08;;;;;;;9.27;4.88;;;;;;;;;;5033884;28;20049;-73
2022/12/20 00:46:34;;;;;;;10.35;5.07;;;;;;;;;;5028500;28;20052;-73
2022/12/20 00:49:00;;;;;;;8.20;4.70;;;;;;;;;;5052500;28;20051;-73
2022/12/20 00:51:27;;;;;;;9.73;4.75;;;;;;;;;;5052486;28;20041;-73
2022/12/20 00:53:54;;;;;;;8.65;4.57;;;;;;;;;;5051630;28;20052;-73
2022/12/20 00:56:20;;;;;;;9.55;4.43;;;;;;;;;;5052652;28;20102;-73
2022/12/20 00:58:46;;;;;;;8.85;4.75;;;;;;;;;;5051634;28;20045;-73
2022/12/20 01:01:15;;;;;;;10.68;4.72;;;;;;;;;;5050958;28;20099;-73
2022/12/20 01:03:41;;;;;;;7.47;4.68;;;;;;;;;;5052339;28;20096;-73
2022/12/20 01:06:07;;;;;;;10.25;4.90;;;;;;;;;;5052317;28;20063;-73
2022/12/20 01:08:33;;;;;;;8.15;4.15;;;;;;;;;;5052171;28;20103;-73
2022/12/20 01:11:01;;;;;;;7.63;4.15;;;;;;;;;;5051684;28;20045;-73
2022/12/20 01:13:27;;;;;;;8.25;4.80;;;;;;;;;;5052426;28;20088;-73
2022/12/20 01:15:53;;;;;;;9.00;4.70;;;;;;;;;;5051778;28;20098;-73
2022/12/20 01:18:19;;;;;;;9.25;4.53;;;;;;;;;;5051615;28;20051;-73
2022/12/20 01:20:45;;;;;;;8.93;4.43;;;;;;;;;;5052178;28;20098;-73
2022/12/20 01:23:11;;;;;;;9.32;4.68;;;;;;;;;;5055802;28;20045;-73
2022/12/20 01:25:37;;;;;;;7.22;4.45;;;;;;;;;;5043786;28;20384;-74
2022/12/20 01:28:03;;;;;;;7.85;4.25;;;;;;;;;;5051494;28;20442;-74
2022/12/20 01:30:29;;;;;;;6.85;4.15;;;;;;;;;;5054070;28;20040;-74
2022/12/20 01:32:56;;;;;;;7.90;4.10;;;;;;;;;;5055790;28;20092;-73
2022/12/20 01:35:22;;;;;;;7.35;4.38;;;;;;;;;;5055633;28;20566;-74
2022/12/20 01:37:48;;;;;;;9.02;4.30;;;;;;;;;;5055439;28;20456;-73
2022/12/20 01:40:14;;;;;;;7.40;4.07;;;;;;;;;;5055743;28;20041;-74
2022/12/20 01:42:40;;;;;;;9.27;4.35;;;;;;;;;;5053668;28;20053;-73
2022/12/20 01:45:07;;;;;;;9.80;4.22;;;;;;;;;;5025606;28;20056;-73
2022/12/20 01:47:35;;;;;;;7.47;4.10;;;;;;;;;;5045945;28;20036;-73
2022/12/20 01:50:03;;;;;;;7.68;4.20;;;;;;;;;;5045625;28;20376;-74
2022/12/20 01:52:37;;;;;;;7.40;4.35;;;;;;;;;;5045396;28;20415;-72
2022/12/20 01:55:23;;;;;;;8.50;4.40;;;;;;;;;;5049950;28;20426;-73
2022/12/20 01:57:55;;;;;;;9.15;4.78;;;;;;;;;;5055072;28;20053;-74
2022/12/20 02:00:21;;;;;;;11.43;4.45;;;;;;;;;;5052166;28;20048;-73
2022/12/20 02:02:48;;;;;;;7.18;4.03;;;;;;;;;;5053237;28;20049;-73
2022/12/20 02:05:14;;;;;;;10.80;4.80;;;;;;;;;;5053163;28;20049;-73
2022/12/20 02:07:43;;;;;;;7.50;4.50;;;;;;;;;;5053307;28;20376;-74
2022/12/20 02:10:10;;;;;;;9.25;4.53;;;;;;;;;;5052987;28;20053;-74
2022/12/20 02:12:47;;;;;;;8.35;4.28;;;;;;;;;;5032325;28;20048;-74
2022/12/20 02:15:13;;;;;;;9.95;4.70;;;;;;;;;;5054945;28;20044;-73
2022/12/20 02:17:54;;;;;;;7.20;4.03;;;;;;;;;;5054256;28;20041;-73
2022/12/20 02:20:39;;;;;;;8.65;4.10;;;;;;;;;;5053238;28;20049;-73
2022/12/20 02:23:23;;;;;;;9.77;4.32;;;;;;;;;;5041710;28;20060;-74
2022/12/20 02:26:28;;;;;;;8.75;4.25;;;;;;;;;;5053698;28;20064;-74
2022/12/20 02:29:00;;;;;;;6.65;3.90;;;;;;;;;;4974324;28;20039;-74
2022/12/20 02:31:32;;;;;;;8.07;4.05;;;;;;;;;;4973707;28;20050;-74
2022/12/20 02:33:59;;;;;;;6.93;4.07;;;;;;;;;;4972064;28;20062;-74
2022/12/20 02:36:25;;;;;;;6.63;3.67;;;;;;;;;;4980664;28;20048;-74
2022/12/20 02:38:51;;;;;;;6.70;4.00;;;;;;;;;;4993162;28;20057;-74
2022/12/20 02:41:20;;;;;;;6.97;3.90;;;;;;;;;;4993018;28;20058;-73
2022/12/20 02:46:34;;;;;;;8.90;4.03;;;;;;;;;;4954229;29;20043;-74
2022/12/20 02:49:02;;;;;;;8.20;4.38;;;;;;;;;;4959441;28;20039;-74
2022/12/20 02:51:29;;;;;;;9.10;4.40;;;;;;;;;;4971520;28;20047;-74
2022/12/20 02:53:57;;;;;;;9.80;4.10;;;;;;;;;;4972899;28;20051;-73
2022/12/20 02:56:32;;;;;;;6.72;4.10;;;;;;;;;;4965859;28;20047;-74
2022/12/20 02:59:02;;;;;;;10.10;4.18;;;;;;;;;;4985632;28;20450;-74
2022/12/20 03:01:31;;;;;;;7.13;4.07;;;;;;;;;;5053962;28;20057;-73
2022/12/20 03:03:58;;;;;;;7.32;4.00;;;;;;;;;;5053077;28;20419;-74
2022/12/20 03:06:24;;;;;;;7.40;4.15;;;;;;;;;;5052292;28;20037;-73
2022/12/20 03:08:50;;;;;;;9.38;3.90;;;;;;;;;;5052596;28;20044;-73
2022/12/20 03:11:16;;;;;;;10.18;4.32;;;;;;;;;;5053282;28;20049;-73
2022/12/20 03:13:42;;;;;;;8.85;4.55;;;;;;;;;;5052987;28;20045;-73
2022/12/20 03:16:09;;;;;;;7.13;4.05;;;;;;;;;;5053176;28;20095;-73
2022/12/20 03:18:35;;;;;;;8.52;4.07;;;;;;;;;;5053225;28;20067;-74
2022/12/20 03:21:02;;;;;;;8.48;4.05;;;;;;;;;;5051932;28;20098;-73
2022/12/20 03:23:28;;;;;;;8.40;4.38;;;;;;;;;;5053111;28;20045;-74
2022/12/20 03:25:54;;;;;;;8.80;4.20;;;;;;;;;;5052995;28;20048;-74
2022/12/20 03:28:20;;;;;;;8.60;4.65;;;;;;;;;;5052140;28;20040;-74
2022/12/20 03:30:46;;;;;;;11.13;4.57;;;;;;;;;;5053706;28;20049;-74
2022/12/20 03:33:12;;;;;;;8.85;4.55;;;;;;;;;;5052739;28;20041;-74
2022/12/20 03:35:38;;;;;;;7.95;4.85;;;;;;;;;;5049851;28;20388;-74
2022/12/20 03:38:04;;;;;;;8.23;4.03;;;;;;;;;;5052042;28;20041;-74
2022/12/20 03:40:30;;;;;;;8.95;4.35;;;;;;;;;;5052703;28;20055;-74
2022/12/20 03:42:56;;;;;;;7.78;4.70;;;;;;;;;;5051272;28;20045;-75
2022/12/20 03:45:23;;;;;;;8.48;4.47;;;;;;;;;;5052485;28;20407;-74
2022/12/20 03:47:49;;;;;;;6.93;4.40;;;;;;;;;;5052664;28;20151;-74
2022/12/20 03:50:15;;;;;;;8.45;5.20;;;;;;;;;;5051986;28;20113;-74
2022/12/20 03:52:41;;;;;;;7.63;4.28;;;;;;;;;;5051191;28;20043;-75
2022/12/20 03:55:08;;;;;;;10.25;4.80;;;;;;;;;;5017432;28;20494;-74
2022/12/20 03:57:34;;;;;;;7.97;4.25;;;;;;;;;;5052316;28;20491;-74
2022/12/20 04:00:00;;;;;;;7.78;4.68;;;;;;;;;;5051156;28;20040;-74
2022/12/20 04:02:26;;;;;;;9.60;4.45;;;;;;;;;;5050899;28;20102;-75
2022/12/20 04:04:52;;;;;;;10.23;4.40;;;;;;;;;;5044758;28;20049;-74
2022/12/20 04:07:19;;;;;;;9.18;4.60;;;;;;;;;;5045408;28;20091;-74
2022/12/20 04:09:45;;;;;;;9.80;4.80;;;;;;;;;;5048029;28;20128;-74
2022/12/20 04:12:11;;;;;;;8.35;4.57;;;;;;;;;;5053152;28;20051;-74
2022/12/20 04:14:37;;;;;;;8.63;4.90;;;;;;;;;;5034258;28;20045;-74
2022/12/20 04:17:03;;;;;;;6.78;3.95;;;;;;;;;;5039997;28;20080;-74
2022/12/20 04:19:29;;;;;;;8.25;4.32;;;;;;;;;;5052807;28;20051;-74
2022/12/20 04:21:57;;;;;;;8.00;4.53;;;;;;;;;;5051801;28;20055;-75
2022/12/20 04:24:23;;;;;;;9.80;4.95;;;;;;;;;;5049253;28;20041;-74
2022/12/20 04:26:49;;;;;;;8.20;4.57;;;;;;;;;;5052474;28;20040;-74
2022/12/20 04:29:15;;;;;;;9.15;4.85;;;;;;;;;;5052623;28;20059;-74
2022/12/20 04:31:41;;;;;;;8.90;4.80;;;;;;;;;;5050209;28;20045;-74
2022/12/20 04:34:07;;;;;;;9.07;5.20;;;;;;;;;;5050624;28;20045;-74
2022/12/20 04:36:34;;;;;;;9.77;4.72;;;;;;;;;;5035045;28;20052;-74
2022/12/20 04:39:00;;;;;;;7.75;4.65;;;;;;;;;;5046035;28;20041;-74
2022/12/20 04:41:26;;;;;;;8.75;5.05;;;;;;;;;;5038828;28;20044;-74
2022/12/20 04:43:56;;;;;;;8.80;4.88;;;;;;;;;;5052391;28;20102;-74
2022/12/20 04:46:22;;;;;;;8.70;5.05;;;;;;;;;;5052574;28;20052;-74
2022/12/20 04:48:48;;;;;;;10.45;5.25;;;;;;;;;;5034938;28;20048;-74
2022/12/20 04:51:15;;;;;;;8.57;5.57;;;;;;;;;;5051769;28;20087;-74
2022/12/20 04:53:47;;;;;;;9.88;5.28;;;;;;;;;;5050980;28;20453;-73
2022/12/20 04:56:18;;;;;;;10.93;4.88;;;;;;;;;;5035846;28;20045;-74
2022/12/20 04:58:44;;;;;;;9.60;5.00;;;;;;;;;;5056542;28;20053;-74
2022/12/20 05:01:10;;;;;;;8.60;5.30;;;;;;;;;;5056103;28;20072;-74
2022/12/20 05:03:36;;;;;;;8.05;5.10;;;;;;;;;;5056388;28;20045;-74
2022/12/20 05:06:03;;;;;;;8.05;4.80;;;;;;;;;;5055402;28;20041;-74
2022/12/20 05:08:29;;;;;;;8.95;5.10;;;;;;;;;;5052856;28;20068;-74
2022/12/20 05:10:55;;;;;;;9.45;4.85;;;;;;;;;;5056353;28;20045;-74
2022/12/20 05:13:21;;;;;;;9.60;4.90;;;;;;;;;;5036733;28;20088;-74
2022/12/20 05:15:51;;;;;;;11.00;4.75;;;;;;;;;;5056111;28;20087;-74
2022/12/20 05:18:17;;;;;;;9.98;4.60;;;;;;;;;;5045924;28;20053;-74
2022/12/20 05:20:44;;;;;;;8.02;4.63;;;;;;;;;;5053958;28;20063;-74
2022/12/20 05:28:39;;;;;;;7.03;4.63;;;;;;;;;;5055863;28;20045;-74
2022/12/20 05:31:06;;;;;;;8.23;4.43;;;;;;;;;;5055708;28;20445;-74
2022/12/20 05:33:32;;;;;;;7.15;4.05;;;;;;;;;;5055980;28;20036;-74
2022/12/20 05:35:58;;;;;;;8.13;4.40;;;;;;;;;;5055665;28;20095;-74
2022/12/20 05:38:24;;;;;;;8.18;4.20;;;;;;;;;;5053303;28;20040;-74
2022/12/20 05:40:50;;;;;;;8.27;3.97;;;;;;;;;;5052710;28;20044;-74
2022/12/20 05:43:17;;;;;;;8.88;4.45;;;;;;;;;;5054768;28;20041;-74
2022/12/20 05:45:47;;;;;;;8.68;4.05;;;;;;;;;;5054351;28;20044;-74
2022/12/20 05:48:13;;;;;;;7.60;3.67;;;;;;;;;;5055394;28;20095;-74
2022/12/20 05:50:39;;;;;;;9.43;4.05;;;;;;;;;;5055612;28;20048;-74
2022/12/20 05:53:05;;;;;;;7.68;3.83;;;;;;;;;;5055412;28;20080;-76
2022/12/20 05:55:31;;;;;;;8.57;3.92;;;;;;;;;;5055447;28;20052;-74
2022/12/20 05:57:57;;;;;;;8.30;4.00;;;;;;;;;;5055228;28;20048;-74
2022/12/20 06:00:23;;;;;;;9.00;4.00;;;;;;;;;;5053604;28;20041;-74
2022/12/20 06:02:49;;;;;;;7.20;4.00;;;;;;;;;;5055020;28;20057;-74
2022/12/20 06:05:15;;;;;;;8.15;3.90;;;;;;;;;;5055307;28;20128;-74
2022/12/20 06:07:42;;;;;;;7.28;4.13;;;;;;;;;;5052996;28;20057;-74
2022/12/20 06:10:10;;;;;;;7.95;3.67;;;;;;;;;;5053670;28;20052;-74
2022/12/20 06:12:36;;;;;;;10.00;3.90;;;;;;;;;;5055080;28;20041;-74
2022/12/20 06:15:02;;;;;;;7.03;3.53;;;;;;;;;;5054773;28;20053;-74
2022/12/20 06:17:28;;;;;;;7.55;3.90;;;;;;;;;;5054383;28;20120;-74
2022/12/20 06:19:54;;;;;;;6.82;4.00;;;;;;;;;;5055005;28;20045;-74
2022/12/20 06:22:20;;;;;;;7.60;3.80;;;;;;;;;;5054356;28;20037;-74
2022/12/20 06:24:46;;;;;;;6.72;3.70;;;;;;;;;;5036345;28;20503;-74
2022/12/20 06:27:12;;;;;;;9.35;3.88;;;;;;;;;;5053568;28;20043;-73
2022/12/20 06:29:38;;;;;;;10.68;4.10;;;;;;;;;;5053122;28;20518;-74
2022/12/20 06:32:05;;;;;;;6.47;4.00;;;;;;;;;;5051322;28;20051;-74
2022/12/20 06:34:31;;;;;;;8.00;3.85;;;;;;;;;;5033174;28;20045;-74
2022/12/20 06:36:57;;;;;;;9.05;3.92;;;;;;;;;;5054503;28;20126;-74
2022/12/20 06:39:23;;;;;;;8.43;4.13;;;;;;;;;;5035728;28;20095;-75
2022/12/20 06:41:49;;;;;;;6.82;3.92;;;;;;;;;;5055314;28;20041;-74
2022/12/20 06:44:16;;;;;;;9.27;4.00;;;;;;;;;;5054395;28;20052;-74
2022/12/20 06:46:42;;;;;;;6.63;3.72;;;;;;;;;;5045867;28;20041;-74
2022/12/20 06:49:08;;;;;;;6.88;4.03;;;;;;;;;;5053535;28;20049;-74
2022/12/20 06:51:34;;;;;;;9.20;3.80;;;;;;;;;;5034500;28;20053;-74
2022/12/20 06:54:00;;;;;;;8.95;4.50;;;;;;;;;;5047284;28;20119;-74
2022/12/20 06:56:26;;;;;;;10.05;4.25;;;;;;;;;;5053961;28;20059;-74
2022/12/20 06:58:52;;;;;;;8.93;4.53;;;;;;;;;;5053025;28;20510;-74
2022/12/20 07:01:18;;;;;;;7.80;4.57;;;;;;;;;;5053974;28;20086;-74
2022/12/20 07:03:44;;;;;;;9.18;5.10;;;;;;;;;;5051638;28;20056;-74
2022/12/20 07:06:10;;;;;;;8.05;4.90;;;;;;;;;;5048288;28;20049;-74
2022/12/20 07:08:36;;;;;;;8.60;4.60;;;;;;;;;;5053031;28;20049;-74
2022/12/20 07:11:06;;;;;;;11.23;5.07;;;;;;;;;;5042907;28;20405;-74
2022/12/20 07:13:33;;;;;;;8.52;5.10;;;;;;;;;;5040966;28;20076;-74
2022/12/20 07:15:59;;;;;;;13.02;5.63;;;;;;;;;;5047348;28;20041;-74
2022/12/20 07:18:25;;;;;;;8.35;5.30;;;;;;;;;;5045162;28;20090;-74
2022/12/20 07:20:51;;;;;;;8.68;5.13;;;;;;;;;;5046350;28;20095;-74
2022/12/20 07:23:18;;;;;;;9.45;5.05;;;;;;;;;;5052072;28;20442;-74
2022/12/20 07:25:52;;;;;;;9.13;5.35;;;;;;;;;;5052554;28;20045;-74
2022/12/20 07:28:18;;;;;;;10.73;6.22;;;;;;;;;;5051496;28;20048;-74
2022/12/20 07:30:44;;;;;;;12.07;6.25;;;;;;;;;;5048143;28;20045;-74
2022/12/20 07:33:10;;;;;;;10.85;6.05;;;;;;;;;;5052143;28;20376;-74
2022/12/20 07:35:36;;;;;;;9.52;6.00;;;;;;;;;;5044071;28;20063;-74
2022/12/20 07:38:02;;;;;;;11.52;6.10;;;;;;;;;;5044555;28;20045;-74
2022/12/20 07:40:28;;;;;;;11.68;6.60;;;;;;;;;;5037966;28;20057;-74
2022/12/20 07:42:54;;;;;;;9.45;6.20;;;;;;;;;;5051418;28;20044;-74
2022/12/20 07:45:20;;;;;;;9.23;6.15;;;;;;;;;;5052692;28;20045;-74
2022/12/20 07:47:46;;;;;;;9.82;5.90;;;;;;;;;;5044014;28;20048;-75
2022/12/20 07:50:13;;;;;;;11.23;6.68;;;;;;;;;;5048990;28;20056;-74
2022/12/20 07:52:40;;;;;;;10.27;6.63;;;;;;;;;;5046799;28;20053;-74
2022/12/20 07:55:07;;;;;;;13.85;7.03;;;;;;;;;;5049213;28;20136;-74
2022/12/20 07:57:39;;;;;;;12.05;6.53;;;;;;;;;;5047970;28;20047;-75
2022/12/20 08:00:06;;;;;;;10.55;6.28;;;;;;;;;;5049814;28;20053;-75
2022/12/20 08:02:37;;;;;;;8.73;5.75;;;;;;;;;;5051022;28;20048;-74
2022/12/20 08:05:04;;;;;;;12.75;5.90;;;;;;;;;;5052159;28;20440;-75
2022/12/20 08:07:30;;;;;;;9.98;5.90;;;;;;;;;;5051480;28;20043;-74
2022/12/20 08:09:57;;;;;;;7.85;5.60;;;;;;;;;;5050672;28;20041;-74
2022/12/20 08:12:24;;;;;;;8.93;5.95;;;;;;;;;;5048785;28;20510;-75
2022/12/20 08:14:55;;;;;;;9.60;5.90;;;;;;;;;;5047432;28;20039;-74
2022/12/20 08:17:21;;;;;;;8.32;5.32;;;;;;;;;;5048469;28;20056;-74
2022/12/20 08:19:50;;;;;;;8.40;5.68;;;;;;;;;;5043305;28;20395;-75
2022/12/20 08:22:16;;;;;;;38.28;5.82;;;;;;;;;;5049670;28;20037;-73
2022/12/20 08:24:42;;;;;;;12.32;5.57;;;;;;;;;;5045547;28;20037;-74
2022/12/20 08:27:09;;;;;;;7.78;4.75;;;;;;;;;;5047477;28;20060;-77
2022/12/20 08:29:35;;;;;;;11.77;5.10;;;;;;;;;;5038267;28;20060;-74
2022/12/20 08:32:01;;;;;;;8.60;4.45;;;;;;;;;;5047396;28;20048;-73
2022/12/20 08:34:27;;;;;;;9.15;4.80;;;;;;;;;;5057699;28;20060;-75
2022/12/20 08:36:53;;;;;;;14.00;4.68;;;;;;;;;;5058140;28;20092;-76
2022/12/20 08:39:19;;;;;;;9.73;4.30;;;;;;;;;;5039577;28;20052;-77
2022/12/20 08:41:45;;;;;;;14.00;4.55;;;;;;;;;;5056235;28;20437;-73
2022/12/20 08:44:11;;;;;;;7.75;4.05;;;;;;;;;;5058232;28;20045;-74
2022/12/20 08:46:37;;;;;;;10.82;4.57;;;;;;;;;;5057950;28;20403;-73
2022/12/20 08:49:04;;;;;;;8.90;4.03;;;;;;;;;;5055844;28;20051;-72
2022/12/20 08:51:31;;;;;;;8.77;4.13;;;;;;;;;;5056879;28;20036;-75
2022/12/20 08:53:57;;;;;;;18.92;4.07;;;;;;;;;;5056515;28;20041;-76
2022/12/20 08:56:23;;;;;;;9.00;3.88;;;;;;;;;;5055676;28;20033;-76
2022/12/20 08:58:49;;;;;;;8.52;3.60;;;;;;;;;;5057202;28;20041;-73
2022/12/20 09:01:17;;;;;;;9.25;3.83;;;;;;;;;;5056079;28;20102;-73
2022/12/20 09:03:43;;;;;;;6.70;3.90;;;;;;;;;;5056103;28;20029;-76
2022/12/20 09:06:14;;;;;;;9.23;3.80;;;;;;;;;;5057167;28;20049;-74
2022/12/20 09:08:40;;;;;;;8.00;4.00;;;;;;;;;;5056205;28;20449;-75
2022/12/20 09:11:08;;;;;;;7.53;3.45;;;;;;;;;;5056010;28;20384;-73
2022/12/20 09:13:34;;;;;;;8.77;3.60;;;;;;;;;;5053363;28;20079;-73
2022/12/20 09:16:04;;;;;;;5.95;3.40;;;;;;;;;;5036036;28;20414;-73
2022/12/20 09:18:30;;;;;;;7.40;3.40;;;;;;;;;;5055155;28;20045;-73
2022/12/20 09:21:00;;;;;;;8.75;3.40;;;;;;;;;;5057055;28;20048;-75
2022/12/20 09:23:26;;;;;;;13.95;4.03;;;;;;;;;;5052607;28;20040;-75
2022/12/20 09:25:52;;;;;;;10.90;3.78;;;;;;;;;;5056037;28;20086;-75
2022/12/20 09:28:19;;;;;;;12.07;4.00;;;;;;;;;;5056182;28;20052;-76
2022/12/20 09:30:45;;;;;;;14.07;4.22;;;;;;;;;;5053850;28;20044;-76
2022/12/20 09:33:11;;;;;;;7.95;3.60;;;;;;;;;;5057418;28;20052;-75
2022/12/20 09:35:43;;;;;;;9.98;3.50;;;;;;;;;;5057020;28;20053;-75
2022/12/20 09:38:09;;;;;;;9.50;3.88;;;;;;;;;;5055831;28;20067;-75
2022/12/20 09:40:37;;;;;;;11.57;3.72;;;;;;;;;;5056535;28;20041;-76
2022/12/20 09:43:03;;;;;;;11.18;4.07;;;;;;;;;;5054811;28;20525;-76
2022/12/20 09:45:32;;;;;;;8.18;3.90;;;;;;;;;;5053453;28;20399;-75
2022/12/20 09:47:58;;;;;;;9.95;3.60;;;;;;;;;;5050047;28;20426;-75
2022/12/20 09:50:47;;;;;;;13.98;4.15;;;;;;;;;;5051157;28;20056;-75
2022/12/20 09:53:14;;;;;;;14.73;5.22;;;;;;;;;;4992064;28;20054;-75
2022/12/20 09:55:43;;;;;;;9.55;4.10;;;;;;;;;;4990144;28;20057;-75
2022/12/20 09:58:23;;;;;;;11.52;3.92;;;;;;;;;;4996205;28;20046;-76
2022/12/20 10:00:49;;;;;;;8.40;3.95;;;;;;;;;;4993626;28;20397;-76
2022/12/20 10:03:26;;;;;;;12.13;3.92;;;;;;;;;;4992167;28;20086;-76
2022/12/20 10:05:53;;;;;;;9.88;4.15;;;;;;;;;;4991939;28;20049;-76
2022/12/20 10:08:26;;;;;;;258.33;13.77;;;;;;;;;;4993262;28;20455;-73
2022/12/20 10:10:55;;;;;;;257.25;13.88;;;;;;;;;;4999713;28;20054;-69
2022/12/20 10:13:26;;;;;;;91.53;7.82;;;;;;;;;;4995295;28;20126;-69
2022/12/20 10:16:18;;;;;;;81.78;6.65;;;;;;;;;;4990437;28;20042;-70
2022/12/20 10:18:45;;;;;;;35.00;4.97;;;;;;;;;;4965914;28;20062;-69
2022/12/20 10:21:17;;;;;;;28.20;5.32;;;;;;;;;;4986248;28;20048;-69
2022/12/20 10:23:50;;;;;;;14.68;4.30;;;;;;;;;;4989952;28;20046;-69
2022/12/20 10:26:16;;;;;;;8.43;4.20;;;;;;;;;;4986217;28;20053;-73
2022/12/20 10:28:42;;;;;;;10.00;3.90;;;;;;;;;;4989443;28;20038;-72
2022/12/20 10:31:13;;;;;;;12.70;4.40;;;;;;;;;;5040484;28;20522;-73
2022/12/20 10:33:39;;;;;;;8.93;4.60;;;;;;;;;;5046045;28;20396;-73
2022/12/20 10:36:18;;;;;;;8.10;4.40;;;;;;;;;;5030151;28;20304;-73
2022/12/20 10:38:45;;;;;;;10.45;4.38;;;;;;;;;;5046283;28;20041;-73
2022/12/20 10:41:15;;;;;;;9.23;4.40;;;;;;;;;;5051701;28;20123;-73
2022/12/20 10:43:47;;;;;;;9.83;4.87;;;;;;;;;;5045543;28;20040;-73
2022/12/20 10:46:15;;;;;;;9.20;4.78;;;;;;;;;;5047311;28;20049;-73
2022/12/20 10:48:42;;;;;;;9.07;4.65;;;;;;;;;;5047196;28;20041;-73
2022/12/20 10:51:09;;;;;;;10.55;4.55;;;;;;;;;;5034171;28;20048;-73
2022/12/20 10:53:35;;;;;;;8.35;4.65;;;;;;;;;;5044849;28;20037;-73
2022/12/20 10:56:12;;;;;;;10.07;4.20;;;;;;;;;;5052791;28;20047;-73
2022/12/20 10:58:38;;;;;;;12.00;4.63;;;;;;;;;;5051919;28;20395;-73
2022/12/20 11:01:11;;;;;;;8.40;4.60;;;;;;;;;;5053229;28;20044;-73
2022/12/20 11:03:56;;;;;;;9.52;4.30;;;;;;;;;;5034580;28;20040;-73
2022/12/20 11:06:24;;;;;;;8.60;4.68;;;;;;;;;;5051012;28;20041;-73
2022/12/20 11:08:50;;;;;;;8.93;4.57;;;;;;;;;;5051582;28;20094;-73
2022/12/20 11:11:18;;;;;;;10.73;4.80;;;;;;;;;;5051462;28;20051;-73
2022/12/20 11:13:45;;;;;;;10.30;4.53;;;;;;;;;;5046731;28;20684;-73
2022/12/20 11:16:25;;;;;;;10.13;4.85;;;;;;;;;;5050707;28;20123;-73
2022/12/20 11:19:09;;;;;;;10.65;4.60;;;;;;;;;;5048892;28;20099;-73
2022/12/20 11:21:47;;;;;;;8.27;4.28;;;;;;;;;;5044467;28;20052;-73
2022/12/20 11:24:20;;;;;;;9.52;4.88;;;;;;;;;;5043464;28;20044;-73
2022/12/20 11:27:09;;;;;;;9.57;4.60;;;;;;;;;;5050770;28;20079;-73
2022/12/20 11:29:41;;;;;;;10.00;4.70;;;;;;;;;;5038784;28;20052;-73
2022/12/20 11:32:31;;;;;;;8.45;4.10;;;;;;;;;;5051994;28;20041;-73
2022/12/20 11:34:57;;;;;;;8.25;4.10;;;;;;;;;;4970720;28;20062;-73
2022/12/20 11:37:24;;;;;;;12.95;4.47;;;;;;;;;;4970040;28;20509;-72
2022/12/20 11:39:56;;;;;;;8.90;3.85;;;;;;;;;;4969313;28;20090;-73
2022/12/20 11:42:25;;;;;;;9.50;4.45;;;;;;;;;;4970877;28;20426;-73
2022/12/20 11:45:10;;;;;;;9.77;4.43;;;;;;;;;;4970358;28;20073;-73
2022/12/20 11:47:38;;;;;;;11.02;4.60;;;;;;;;;;4968903;28;20043;-73
2022/12/20 11:50:04;;;;;;;11.95;4.93;;;;;;;;;;4969799;28;20045;-73
2022/12/20 11:52:41;;;;;;;7.88;4.22;;;;;;;;;;4968194;28;20537;-73
2022/12/20 11:55:20;;;;;;;8.38;3.78;;;;;;;;;;4971595;28;20516;-73
2022/12/20 11:58:04;;;;;;;11.27;5.05;;;;;;;;;;4970343;28;20055;-73
2022/12/20 12:00:34;;;;;;;8.43;5.00;;;;;;;;;;4965504;28;20035;-74
2022/12/20 12:03:12;;;;;;;9.70;4.50;;;;;;;;;;4970687;28;20174;-74
2022/12/20 12:05:47;;;;;;;7.88;4.43;;;;;;;;;;4968698;28;20078;-73
2022/12/20 12:08:18;;;;;;;8.52;4.50;;;;;;;;;;4953858;28;20057;-74
2022/12/20 12:10:49;;;;;;;8.15;4.72;;;;;;;;;;4954553;28;20070;-74
2022/12/20 12:13:19;;;;;;;9.85;4.80;;;;;;;;;;5051365;28;20045;-73
2022/12/20 12:15:48;;;;;;;9.70;4.78;;;;;;;;;;5052357;28;20460;-74
2022/12/20 12:18:21;;;;;;;8.38;4.65;;;;;;;;;;5050937;28;20131;-73
2022/12/20 12:20:55;;;;;;;9.27;5.07;;;;;;;;;;5051361;28;20078;-73
2022/12/20 12:23:36;;;;;;;10.80;4.68;;;;;;;;;;5046303;28;20050;-73
2022/12/20 12:26:04;;;;;;;7.45;4.47;;;;;;;;;;5032310;28;20053;-73
2022/12/20 12:28:30;;;;;;;8.60;4.70;;;;;;;;;;5031215;28;20067;-73
2022/12/20 12:30:59;;;;;;;8.52;4.65;;;;;;;;;;5046478;28;20046;-73
2022/12/20 12:33:28;;;;;;;9.50;5.35;;;;;;;;;;5050449;28;20037;-73
2022/12/20 12:36:16;;;;;;;10.00;4.75;;;;;;;;;;5051122;28;20052;-73
2022/12/20 12:38:48;;;;;;;8.57;5.13;;;;;;;;;;5050783;28;20052;-73
2022/12/20 12:41:23;;;;;;;10.15;5.13;;;;;;;;;;5051801;28;20059;-73
2022/12/20 12:43:51;;;;;;;8.10;5.05;;;;;;;;;;5051130;28;20644;-73
2022/12/20 12:46:18;;;;;;;8.88;5.47;;;;;;;;;;5051201;28;20045;-73
2022/12/20 12:49:01;;;;;;;9.77;5.10;;;;;;;;;;5051672;28;20083;-73
2022/12/20 12:51:34;;;;;;;10.70;5.82;;;;;;;;;;5044003;28;20077;-73
2022/12/20 12:54:12;;;;;;;10.32;5.28;;;;;;;;;;5043258;28;20045;-73
2022/12/20 12:56:39;;;;;;;10.02;5.55;;;;;;;;;;5046561;28;20044;-73
2022/12/20 12:59:05;;;;;;;9.07;5.78;;;;;;;;;;5040219;28;20092;-73
2022/12/20 13:01:52;;;;;;;9.52;5.63;;;;;;;;;;5043702;28;20053;-73
2022/12/20 13:04:18;;;;;;;9.68;5.80;;;;;;;;;;5019410;28;20503;-73
2022/12/20 13:06:48;;;;;;;9.63;5.93;;;;;;;;;;5025001;28;20053;-73
2022/12/20 13:09:27;;;;;;;9.25;5.78;;;;;;;;;;5039322;28;20128;-73
2022/12/20 13:11:56;;;;;;;15.00;5.97;;;;;;;;;;5039977;28;20109;-73
2022/12/20 13:14:23;;;;;;;10.43;5.72;;;;;;;;;;5045186;28;20041;-73
2022/12/20 13:16:52;;;;;;;9.48;5.88;;;;;;;;;;5048750;28;20556;-74
2022/12/20 13:19:18;;;;;;;10.40;6.40;;;;;;;;;;5053821;28;20136;-74
2022/12/20 13:21:52;;;;;;;12.70;6.78;;;;;;;;;;5055349;28;20107;-74
2022/12/20 13:24:35;;;;;;;9.20;6.22;;;;;;;;;;5049663;28;20048;-73
2022/12/20 13:27:03;;;;;;;12.55;6.53;;;;;;;;;;5048257;28;20052;-73
2022/12/20 13:29:35;;;;;;;10.10;6.28;;;;;;;;;;5050042;28;20080;-73
2022/12/20 13:32:02;;;;;;;11.07;6.53;;;;;;;;;;5052974;28;20048;-73
2022/12/20 13:34:39;;;;;;;10.20;6.40;;;;;;;;;;5052499;28;20083;-73
2022/12/20 13:37:24;;;;;;;12.63;6.13;;;;;;;;;;5051927;28;20045;-73
2022/12/20 13:39:50;;;;;;;11.25;6.80;;;;;;;;;;5039283;28;20037;-73
2022/12/20 13:42:22;;;;;;;9.93;6.75;;;;;;;;;;5050104;28;20045;-73
2022/12/20 13:44:49;;;;;;;13.88;6.78;;;;;;;;;;5053347;28;20037;-73
2022/12/20 13:47:23;;;;;;;9.65;6.50;;;;;;;;;;5052557;28;20487;-73
2022/12/20 13:49:49;;;;;;;10.70;6.97;;;;;;;;;;5052121;28;20037;-73
2022/12/20 13:52:15;;;;;;;11.70;7.20;;;;;;;;;;5054173;28;20513;-73
2022/12/20 13:54:42;;;;;;;11.43;7.00;;;;;;;;;;5046157;28;20033;-74
2022/12/20 13:57:09;;;;;;;12.20;6.72;;;;;;;;;;5035774;28;20094;-74
2022/12/20 13:59:36;;;;;;;9.85;6.50;;;;;;;;;;5047128;28;20411;-73
2022/12/20 14:02:09;;;;;;;9.63;6.68;;;;;;;;;;5034331;28;20404;-75
2022/12/20 14:04:42;;;;;;;8.93;6.30;;;;;;;;;;5042622;28;20041;-73
2022/12/20 14:07:11;;;;;;;9.93;6.32;;;;;;;;;;5053614;28;20119;-74
2022/12/20 14:09:38;;;;;;;11.15;6.40;;;;;;;;;;5054034;28;20049;-73
2022/12/20 14:12:22;;;;;;;10.27;6.18;;;;;;;;;;5054132;28;20055;-73
2022/12/20 14:14:49;;;;;;;9.65;6.70;;;;;;;;;;5053844;28;20092;-73
2022/12/20 14:17:15;;;;;;;16.13;7.88;;;;;;;;;;5053028;28;20059;-73
2022/12/20 14:19:42;;;;;;;10.70;7.28;;;;;;;;;;5053912;28;20041;-74
2022/12/20 14:22:09;;;;;;;13.15;7.03;;;;;;;;;;5050016;28;20052;-74
2022/12/20 14:24:38;;;;;;;11.32;7.45;;;;;;;;;;5016600;28;20072;-74
2022/12/20 14:27:04;;;;;;;13.20;7.63;;;;;;;;;;5047716;28;20102;-73
2022/12/20 14:29:31;;;;;;;11.73;7.60;;;;;;;;;;5052012;28;20048;-74
2022/12/20 14:31:57;;;;;;;11.77;7.47;;;;;;;;;;5053635;28;20049;-73
2022/12/20 14:34:28;;;;;;;14.20;8.23;;;;;;;;;;5052466;28;20051;-74
2022/12/20 14:37:14;;;;;;;13.73;7.90;;;;;;;;;;5045741;28;20123;-74
2022/12/20 14:39:53;;;;;;;13.43;8.02;;;;;;;;;;5053987;28;20057;-74
2022/12/20 14:42:20;;;;;;;13.50;8.18;;;;;;;;;;5053275;28;20063;-74
2022/12/20 14:44:46;;;;;;;11.65;8.50;;;;;;;;;;5051978;28;20041;-74
2022/12/20 14:47:26;;;;;;;13.07;8.93;;;;;;;;;;5052370;28;20094;-73
2022/12/20 14:49:55;;;;;;;13.35;8.65;;;;;;;;;;5053162;28;20475;-74
2022/12/20 14:52:24;;;;;;;15.23;9.60;;;;;;;;;;5047098;28;20061;-74
2022/12/20 14:54:58;;;;;;;14.50;8.93;;;;;;;;;;5052757;28;20407;-74